createdAt,value
2023-02-12T00:00:11.980Z,62.40
2023-02-12T00:02:38.874Z,62.30
2023-02-12T00:05:06.634Z,62.45
2023-02-12T00:07:34.809Z,62.45
2023-02-12T00:10:01.958Z,62.40
2023-02-12T00:12:28.973Z,62.46
2023-02-12T00:14:55.850Z,62.35
2023-02-12T00:17:22.736Z,62.49
2023-02-12T00:19:49.629Z,62.54
2023-02-12T00:22:16.552Z,62.46
2023-02-12T00:24:44.707Z,62.64
2023-02-12T00:27:11.626Z,62.50
2023-02-12T00:29:38.766Z,62.42
2023-02-12T00:32:05.856Z,62.42
2023-02-12T00:34:32.766Z,62.24
2023-02-12T00:36:59.609Z,62.75
2023-02-12T00:39:26.668Z,62.20
2023-02-12T00:41:54.876Z,62.30
2023-02-12T00:44:21.797Z,62.31
2023-02-12T00:46:48.745Z,62.34
2023-02-12T00:49:15.891Z,62.37
2023-02-12T00:51:42.767Z,62.40
2023-02-12T00:54:09.618Z,62.59
2023-02-12T00:56:36.687Z,62.53
2023-02-12T00:59:04.857Z,62.43
2023-02-12T01:01:31.727Z,62.41
2023-02-12T01:03:58.616Z,62.48
2023-02-12T01:06:25.895Z,62.58
2023-02-12T01:08:53.380Z,62.73
2023-02-12T01:11:21.009Z,62.60
2023-02-12T01:13:47.906Z,62.70
2023-02-12T01:16:20.594Z,62.57
2023-02-12T01:18:48.746Z,62.78
2023-02-12T01:21:19.187Z,62.65
2023-02-12T01:23:47.763Z,62.77
2023-02-12T01:26:16.548Z,62.60
2023-02-12T01:28:48.715Z,62.58
2023-02-12T01:31:20.537Z,62.43
2023-02-12T01:33:49.690Z,62.36
2023-02-12T01:36:16.650Z,62.74
2023-02-12T01:38:43.831Z,62.42
2023-02-12T01:41:14.849Z,62.60
2023-02-12T01:43:42.559Z,62.57
2023-02-12T01:46:14.629Z,62.53
2023-02-12T01:48:48.025Z,62.30
2023-02-12T01:51:20.386Z,62.35
2023-02-12T01:53:52.335Z,62.25
2023-02-12T01:56:19.945Z,62.31
2023-02-12T01:58:51.138Z,62.45
2023-02-12T02:01:22.587Z,62.29
2023-02-12T02:03:57.072Z,62.42
2023-02-12T02:06:31.240Z,62.10
2023-02-12T02:08:58.253Z,62.53
2023-02-12T02:11:43.548Z,62.49
2023-02-12T02:14:28.979Z,62.61
2023-02-12T02:17:24.345Z,62.31
2023-02-12T02:20:21.421Z,62.46
2023-02-12T02:23:04.035Z,62.59
2023-02-12T02:25:57.204Z,62.46
2023-02-12T02:28:56.834Z,62.44
2023-02-12T02:31:33.274Z,62.47
2023-02-12T02:34:12.235Z,62.70
2023-02-12T02:36:59.555Z,62.66
2023-02-12T02:39:38.631Z,62.44
2023-02-12T02:42:15.555Z,62.63
2023-02-12T02:44:51.044Z,62.69
2023-02-12T02:47:25.166Z,62.65
2023-02-12T02:49:57.528Z,62.88
2023-02-12T02:52:33.879Z,62.81
2023-02-12T02:55:07.195Z,62.57
2023-02-12T02:57:41.344Z,62.77
2023-02-12T03:00:18.286Z,62.88
2023-02-12T03:02:55.146Z,62.76
2023-02-12T03:05:28.698Z,62.81
2023-02-12T03:08:02.907Z,62.60
2023-02-12T03:10:36.494Z,62.67
2023-02-12T03:13:11.787Z,62.65
2023-02-12T03:15:46.911Z,62.07
2023-02-12T03:18:22.758Z,62.68
2023-02-12T03:20:58.509Z,62.76
2023-02-12T03:23:32.562Z,62.69
2023-02-12T03:26:06.221Z,62.64
2023-02-12T03:28:38.311Z,62.78
2023-02-12T03:31:16.845Z,62.75
2023-02-12T03:34:00.127Z,62.61
2023-02-12T03:36:43.119Z,62.68
2023-02-12T03:39:20.406Z,62.68
2023-02-12T03:41:56.628Z,62.67
2023-02-12T03:44:41.761Z,62.63
2023-02-12T03:47:21.035Z,62.64
2023-02-12T03:49:59.376Z,62.48
2023-02-12T03:52:26.986Z,62.47
2023-02-12T03:54:54.026Z,62.46
2023-02-12T03:57:30.424Z,62.43
2023-02-12T03:59:59.006Z,62.34
2023-02-12T04:02:26.100Z,62.73
2023-02-12T04:04:54.456Z,62.49
2023-02-12T04:07:21.948Z,62.35
2023-02-12T04:09:49.130Z,62.46
2023-02-12T04:12:34.728Z,62.20
2023-02-12T04:15:20.935Z,62.42
2023-02-12T04:17:58.260Z,62.25
2023-02-12T04:20:37.743Z,62.36
2023-02-12T04:23:21.105Z,62.23
2023-02-12T04:26:02.808Z,62.38
2023-02-12T04:28:44.161Z,62.15
2023-02-12T04:31:23.598Z,62.16
2023-02-12T04:34:07.188Z,62.20
2023-02-12T04:36:47.142Z,62.18
2023-02-12T04:39:22.040Z,62.28
2023-02-12T04:41:49.462Z,62.29
2023-02-12T04:44:22.375Z,62.16
2023-02-12T04:46:49.415Z,62.45
2023-02-12T04:49:19.755Z,62.47
2023-02-12T04:51:49.372Z,62.37
2023-02-12T04:54:18.953Z,62.21
2023-02-12T04:56:46.358Z,62.17
2023-02-12T04:59:13.995Z,62.15
2023-02-12T05:01:44.208Z,62.19
2023-02-12T05:04:14.491Z,62.19
2023-02-12T05:06:43.132Z,62.01
2023-02-12T05:09:16.601Z,62.02
2023-02-12T05:11:43.839Z,62.18
2023-02-12T05:14:11.380Z,62.15
2023-02-12T05:16:38.404Z,62.09
2023-02-12T05:19:05.622Z,62.18
2023-02-12T05:21:32.560Z,62.25
2023-02-12T05:24:01.438Z,62.22
2023-02-12T05:26:29.902Z,62.26
2023-02-12T05:28:56.799Z,62.22
2023-02-12T05:31:23.883Z,62.22
2023-02-12T05:33:51.042Z,62.33
2023-02-12T05:36:21.188Z,62.09
2023-02-12T05:38:51.719Z,62.21
2023-02-12T05:41:21.870Z,62.33
2023-02-12T05:43:50.925Z,62.35
2023-02-12T05:46:20.364Z,61.97
2023-02-12T05:48:47.893Z,62.22
2023-02-12T05:51:17.696Z,62.15
2023-02-12T05:53:44.566Z,62.46
2023-02-12T05:56:14.988Z,62.38
2023-02-12T05:58:45.196Z,62.46
2023-02-12T06:01:17.039Z,62.50
2023-02-12T06:03:44.749Z,62.47
2023-02-12T06:06:12.626Z,62.38
2023-02-12T06:08:39.843Z,62.61
2023-02-12T06:11:10.985Z,62.55
2023-02-12T06:13:38.125Z,62.45
2023-02-12T06:16:06.219Z,62.49
2023-02-12T06:18:36.846Z,62.53
2023-02-12T06:21:04.281Z,62.43
2023-02-12T06:23:31.223Z,62.56
2023-02-12T06:25:58.603Z,62.52
2023-02-12T06:28:25.827Z,62.37
2023-02-12T06:30:52.993Z,63.11
2023-02-12T06:33:20.037Z,62.49
2023-02-12T06:35:48.345Z,62.60
2023-02-12T06:38:15.388Z,62.72
2023-02-12T06:40:42.353Z,62.61
2023-02-12T06:43:09.521Z,62.74
2023-02-12T06:45:36.675Z,62.53
2023-02-12T06:48:03.969Z,62.49
2023-02-12T06:50:31.246Z,62.69
2023-02-12T06:52:59.931Z,62.75
2023-02-12T06:55:26.946Z,62.84
2023-02-12T06:57:53.899Z,62.89
2023-02-12T07:00:22.444Z,62.71
2023-02-12T07:02:54.366Z,62.82
2023-02-12T07:05:23.156Z,62.75
2023-02-12T07:07:50.287Z,62.82
2023-02-12T07:10:19.783Z,62.77
2023-02-12T07:12:46.838Z,62.90
2023-02-12T07:15:14.664Z,63.01
2023-02-12T07:17:41.872Z,62.77
2023-02-12T07:20:10.063Z,62.77
2023-02-12T07:22:37.284Z,62.79
2023-02-12T07:25:04.930Z,62.90
2023-02-12T07:27:37.262Z,62.61
2023-02-12T07:30:05.702Z,62.61
2023-02-12T07:32:33.088Z,62.67
2023-02-12T07:35:00.194Z,62.64
2023-02-12T07:37:27.218Z,62.84
2023-02-12T07:39:54.122Z,62.87
2023-02-12T07:42:21.166Z,62.59
2023-02-12T07:44:49.987Z,62.65
2023-02-12T07:47:17.553Z,62.92
2023-02-12T07:49:44.555Z,62.92
2023-02-12T07:52:13.494Z,62.94
2023-02-12T07:54:40.435Z,62.92
2023-02-12T07:57:07.356Z,62.73
2023-02-12T07:59:35.583Z,62.68
2023-02-12T08:02:03.889Z,62.86
2023-02-12T08:04:30.867Z,62.83
2023-02-12T08:06:57.860Z,62.73
2023-02-12T08:09:30.707Z,62.92
2023-02-12T08:11:57.859Z,62.79
2023-02-12T08:14:26.675Z,62.96
2023-02-12T08:16:53.655Z,63.02
2023-02-12T08:19:26.131Z,62.88
2023-02-12T08:21:55.833Z,62.86
2023-02-12T08:24:23.336Z,62.78
2023-02-12T08:26:50.638Z,62.42
2023-02-12T08:29:21.582Z,62.60
2023-02-12T08:31:54.969Z,62.48
2023-02-12T08:34:26.231Z,62.54
2023-02-12T08:36:54.870Z,62.51
2023-02-12T08:39:24.365Z,62.54
2023-02-12T08:41:53.677Z,62.60
2023-02-12T08:44:20.837Z,62.21
2023-02-12T08:46:50.496Z,62.37
2023-02-12T08:49:20.926Z,62.13
2023-02-12T08:51:52.270Z,62.02
2023-02-12T08:54:22.464Z,62.09
2023-02-12T08:56:49.968Z,62.07
2023-02-12T08:59:17.949Z,62.16
2023-02-12T09:01:45.361Z,62.02
2023-02-12T09:04:17.844Z,62.03
2023-02-12T09:06:46.163Z,62.07
2023-02-12T09:09:15.205Z,61.82
2023-02-12T09:11:43.086Z,61.97
2023-02-12T09:14:14.081Z,61.98
2023-02-12T09:16:41.552Z,62.07
2023-02-12T09:19:12.208Z,61.91
2023-02-12T09:21:39.203Z,61.79
2023-02-12T09:24:06.668Z,61.81
2023-02-12T09:26:34.976Z,61.64
2023-02-12T09:29:03.965Z,61.60
2023-02-12T09:31:33.277Z,61.57
2023-02-12T09:34:03.766Z,61.53
2023-02-12T09:36:32.555Z,61.46
2023-02-12T09:39:00.406Z,61.32
2023-02-12T09:41:49.773Z,61.58
2023-02-12T09:44:26.590Z,61.38
2023-02-12T09:47:01.252Z,61.40
2023-02-12T09:49:49.937Z,61.13
2023-02-12T09:52:23.188Z,61.27
2023-02-12T09:54:51.291Z,61.14
2023-02-12T09:57:29.224Z,60.91
2023-02-12T10:00:01.863Z,60.92
2023-02-12T10:02:30.047Z,61.13
2023-02-12T10:05:01.979Z,61.02
2023-02-12T10:07:57.463Z,60.96
2023-02-12T10:10:47.107Z,60.60
2023-02-12T10:13:31.465Z,60.42
2023-02-12T10:16:10.130Z,60.75
2023-02-12T10:19:00.827Z,60.82
2023-02-12T10:21:44.696Z,60.61
2023-02-12T10:24:57.206Z,60.31
2023-02-12T10:27:38.363Z,60.35
2023-02-12T10:30:19.975Z,60.29
2023-02-12T10:32:52.712Z,60.43
2023-02-12T10:35:23.550Z,60.23
2023-02-12T10:37:59.288Z,59.88
2023-02-12T10:40:32.846Z,60.38
2023-02-12T10:43:02.685Z,60.22
2023-02-12T10:45:34.053Z,59.98
2023-02-12T10:48:13.336Z,59.84
2023-02-12T10:51:00.644Z,59.91
2023-02-12T10:53:35.030Z,59.26
2023-02-12T10:56:18.236Z,59.77
2023-02-12T10:58:55.592Z,60.08
2023-02-12T11:01:27.515Z,60.21
2023-02-12T11:03:56.343Z,60.22
2023-02-12T11:06:29.333Z,59.93
2023-02-12T11:08:59.274Z,60.22
2023-02-12T11:11:30.620Z,60.08
2023-02-12T11:14:03.171Z,60.11
2023-02-12T11:16:35.148Z,59.86
2023-02-12T11:19:06.179Z,60.11
2023-02-12T11:21:34.565Z,59.86
2023-02-12T11:24:28.707Z,59.85
2023-02-12T11:27:13.306Z,60.04
2023-02-12T11:29:41.033Z,59.93
2023-02-12T11:32:17.102Z,59.82
2023-02-12T11:34:44.078Z,60.10
2023-02-12T11:37:18.684Z,60.22
2023-02-12T11:39:50.317Z,60.10
2023-02-12T11:42:22.351Z,60.01
2023-02-12T11:44:54.604Z,59.89
2023-02-12T11:47:27.065Z,59.91
2023-02-12T11:49:58.578Z,60.01
2023-02-12T11:52:31.082Z,59.69
2023-02-12T11:55:04.700Z,59.86
2023-02-12T11:57:43.487Z,59.89
2023-02-12T12:00:17.997Z,60.16
2023-02-12T12:02:55.151Z,59.49
2023-02-12T12:05:29.584Z,59.48
2023-02-12T12:08:02.974Z,59.80
2023-02-12T12:10:40.792Z,59.87
2023-02-12T12:13:17.183Z,59.57
2023-02-12T12:16:09.163Z,59.38
2023-02-12T12:19:05.728Z,58.98
2023-02-12T12:21:42.367Z,59.25
2023-02-12T12:24:17.246Z,58.99
2023-02-12T12:27:00.664Z,59.16
2023-02-12T12:29:47.437Z,58.71
2023-02-12T12:32:20.473Z,58.88
2023-02-12T12:34:48.889Z,59.07
2023-02-12T12:37:40.320Z,58.63
2023-02-12T12:40:34.980Z,58.96
2023-02-12T12:43:14.390Z,58.92
2023-02-12T12:46:20.757Z,59.00
2023-02-12T12:49:39.198Z,59.17
2023-02-12T12:52:57.549Z,59.13
2023-02-12T12:56:10.688Z,59.03
2023-02-12T12:58:57.666Z,59.09
2023-02-12T13:02:05.091Z,58.77
2023-02-12T13:04:57.007Z,58.76
2023-02-12T13:07:50.569Z,59.17
2023-02-12T13:10:33.962Z,59.15
2023-02-12T13:13:23.301Z,58.86
2023-02-12T13:16:01.045Z,59.09
2023-02-12T13:18:48.417Z,58.92
2023-02-12T13:21:34.893Z,59.20
2023-02-12T13:24:15.333Z,59.08
2023-02-12T13:26:49.276Z,59.03
2023-02-12T13:29:22.695Z,58.89
2023-02-12T13:31:57.738Z,58.63
2023-02-12T13:34:30.525Z,58.64
2023-02-12T13:37:01.038Z,58.76
2023-02-12T13:39:34.512Z,58.83
2023-02-12T13:42:23.657Z,59.04
2023-02-12T13:45:01.425Z,58.69
2023-02-12T13:47:44.514Z,58.71
2023-02-12T13:50:36.493Z,58.84
2023-02-12T13:53:17.707Z,58.72
2023-02-12T13:56:04.205Z,59.17
2023-02-12T13:59:00.114Z,58.69
2023-02-12T14:01:46.516Z,58.97
2023-02-12T14:04:29.904Z,59.08
2023-02-12T14:07:04.423Z,59.01
2023-02-12T14:09:38.080Z,58.95
2023-02-12T14:12:11.429Z,59.03
2023-02-12T14:14:44.446Z,59.09
2023-02-12T14:17:52.941Z,59.22
2023-02-12T14:20:27.243Z,59.34
2023-02-12T14:23:28.016Z,59.00
2023-02-12T14:26:05.542Z,59.20
2023-02-12T14:28:50.109Z,59.26
2023-02-12T14:31:34.611Z,59.31
2023-02-12T14:34:40.792Z,58.62
2023-02-12T14:37:17.944Z,58.41
2023-02-12T14:39:45.527Z,58.84
2023-02-12T14:42:44.123Z,58.91
2023-02-12T14:45:37.080Z,59.08
2023-02-12T14:48:05.236Z,58.81
2023-02-12T14:50:43.064Z,58.34
2023-02-12T14:53:30.499Z,58.67
2023-02-12T14:55:59.890Z,58.78
2023-02-12T14:58:28.005Z,58.80
2023-02-12T15:00:59.834Z,58.77
2023-02-12T15:03:39.881Z,58.99
2023-02-12T15:06:16.148Z,58.73
2023-02-12T15:08:54.760Z,58.67
2023-02-12T15:11:43.218Z,58.68
2023-02-12T15:14:21.031Z,58.92
2023-02-12T15:16:59.907Z,58.82
2023-02-12T15:19:40.558Z,58.97
2023-02-12T15:22:22.810Z,58.61
2023-02-12T15:24:49.904Z,58.71
2023-02-12T15:27:20.424Z,58.83
2023-02-12T15:29:52.651Z,58.64
2023-02-12T15:32:27.176Z,58.96
2023-02-12T15:34:55.974Z,58.89
2023-02-12T15:37:28.112Z,58.92
2023-02-12T15:40:00.233Z,58.72
2023-02-12T15:42:31.220Z,58.87
2023-02-12T15:45:16.177Z,58.76
2023-02-12T15:47:54.620Z,58.89
2023-02-12T15:50:22.539Z,58.93
2023-02-12T15:52:50.824Z,58.92
2023-02-12T15:55:22.593Z,58.88
2023-02-12T15:57:51.280Z,58.68
2023-02-12T16:00:31.967Z,58.79
2023-02-12T16:03:00.223Z,59.05
2023-02-12T16:05:27.941Z,59.18
2023-02-12T16:07:55.783Z,59.25
2023-02-12T16:10:24.076Z,59.12
2023-02-12T16:12:51.931Z,59.08
2023-02-12T16:15:30.689Z,58.91
2023-02-12T16:18:03.873Z,59.33
2023-02-12T16:20:32.094Z,59.15
2023-02-12T16:22:59.974Z,59.33
2023-02-12T16:25:30.460Z,59.24
2023-02-12T16:28:03.082Z,59.27
2023-02-12T16:30:33.317Z,59.12
2023-02-12T16:33:02.284Z,59.37
2023-02-12T16:35:32.469Z,58.92
2023-02-12T16:38:23.403Z,59.30
2023-02-12T16:41:21.515Z,59.34
2023-02-12T16:43:51.151Z,58.92
2023-02-12T16:46:19.410Z,59.23
2023-02-12T16:48:51.610Z,59.16
2023-02-12T16:51:25.081Z,59.24
2023-02-12T16:53:53.979Z,59.66
2023-02-12T16:56:24.837Z,59.13
2023-02-12T16:58:56.216Z,59.15
2023-02-12T17:01:27.728Z,59.08
2023-02-12T17:04:00.088Z,59.17
2023-02-12T17:06:31.310Z,59.19
2023-02-12T17:08:59.124Z,58.99
2023-02-12T17:11:29.149Z,58.88
2023-02-12T17:13:56.846Z,58.91
2023-02-12T17:16:32.362Z,59.06
2023-02-12T17:19:00.660Z,59.28
2023-02-12T17:21:31.277Z,58.95
2023-02-12T17:23:58.372Z,58.99
2023-02-12T17:26:26.917Z,59.13
2023-02-12T17:28:54.107Z,59.07
2023-02-12T17:31:21.182Z,59.13
2023-02-12T17:33:48.360Z,58.99
2023-02-12T17:36:15.357Z,58.92
2023-02-12T17:38:42.298Z,58.93
2023-02-12T17:41:10.642Z,59.07
2023-02-12T17:43:38.936Z,59.06
2023-02-12T17:46:09.829Z,58.95
2023-02-12T17:48:37.166Z,58.82
2023-02-12T17:51:04.672Z,58.82
2023-02-12T17:53:31.837Z,58.88
2023-02-12T17:55:58.919Z,58.71
2023-02-12T17:58:25.935Z,58.90
2023-02-12T18:00:55.300Z,58.61
2023-02-12T18:03:22.875Z,58.75
2023-02-12T18:05:49.704Z,58.64
2023-02-12T18:08:16.609Z,58.76
2023-02-12T18:10:45.194Z,58.74
2023-02-12T18:13:13.778Z,58.75
2023-02-12T18:15:41.594Z,58.72
2023-02-12T18:18:10.362Z,58.85
2023-02-12T18:20:39.824Z,58.92
2023-02-12T18:23:08.378Z,58.65
2023-02-12T18:25:39.240Z,58.78
2023-02-12T18:28:06.326Z,58.61
2023-02-12T18:30:33.442Z,58.66
2023-02-12T18:33:00.558Z,58.56
2023-02-12T18:35:29.116Z,58.83
2023-02-12T18:37:57.872Z,58.81
2023-02-12T18:40:25.657Z,58.65
2023-02-12T18:42:52.651Z,58.72
2023-02-12T18:45:21.541Z,58.74
2023-02-12T18:47:48.423Z,58.83
2023-02-12T18:50:15.448Z,58.80
2023-02-12T18:52:43.722Z,58.72
2023-02-12T18:55:10.667Z,58.79
2023-02-12T18:57:37.556Z,58.67
2023-02-12T19:00:06.025Z,59.13
2023-02-12T19:02:33.028Z,58.67
2023-02-12T19:05:00.132Z,58.91
2023-02-12T19:07:27.334Z,58.66
2023-02-12T19:09:55.735Z,58.65
2023-02-12T19:12:23.115Z,58.73
2023-02-12T19:14:50.027Z,58.85
2023-02-12T19:17:17.098Z,58.89
2023-02-12T19:19:44.149Z,59.13
2023-02-12T19:22:11.107Z,59.31
2023-02-12T19:24:46.623Z,59.27
2023-02-12T19:27:15.465Z,59.25
2023-02-12T19:29:42.653Z,59.38
2023-02-12T19:32:09.841Z,59.47
2023-02-12T19:34:36.752Z,59.29
2023-02-12T19:37:03.614Z,59.59
2023-02-12T19:39:30.641Z,59.85
2023-02-12T19:41:57.477Z,59.86
2023-02-12T19:44:25.867Z,60.02
2023-02-12T19:46:53.173Z,60.26
2023-02-12T19:49:23.418Z,59.96
2023-02-12T19:51:50.654Z,60.09
2023-02-12T19:54:20.103Z,60.28
2023-02-12T19:56:47.537Z,60.12
2023-02-12T19:59:17.524Z,60.16
2023-02-12T20:01:48.040Z,60.14
2023-02-12T20:04:20.006Z,60.12
2023-02-12T20:06:50.696Z,60.33
2023-02-12T20:09:18.203Z,60.36
2023-02-12T20:11:45.367Z,60.26
2023-02-12T20:14:14.043Z,60.29
2023-02-12T20:16:44.502Z,60.29
2023-02-12T20:19:16.973Z,60.12
2023-02-12T20:21:44.186Z,60.44
2023-02-12T20:24:11.186Z,60.52
2023-02-12T20:26:38.854Z,60.39
2023-02-12T20:29:06.429Z,60.39
2023-02-12T20:31:37.014Z,60.39
2023-02-12T20:34:07.878Z,60.61
2023-02-12T20:36:38.839Z,60.61
2023-02-12T20:39:10.453Z,60.15
2023-02-12T20:41:37.881Z,60.23
2023-02-12T20:44:07.072Z,60.42
2023-02-12T20:46:36.108Z,60.07
2023-02-12T20:49:03.601Z,60.40
2023-02-12T20:51:31.123Z,60.18
2023-02-12T20:54:01.711Z,60.03
2023-02-12T20:56:31.936Z,60.22
2023-02-12T20:58:59.983Z,60.18
2023-02-12T21:01:34.551Z,60.15
2023-02-12T21:04:04.267Z,60.37
2023-02-12T21:06:31.662Z,60.26
2023-02-12T21:08:59.991Z,60.21
2023-02-12T21:11:29.110Z,60.07
2023-02-12T21:14:02.745Z,60.08
2023-02-12T21:16:41.530Z,60.55
2023-02-12T21:19:09.448Z,60.25
2023-02-12T21:21:39.343Z,60.29
2023-02-12T21:24:12.571Z,60.26
2023-02-12T21:26:39.895Z,60.24
2023-02-12T21:29:06.860Z,60.28
2023-02-12T21:31:36.781Z,60.21
2023-02-12T21:34:06.928Z,60.23
2023-02-12T21:36:37.312Z,60.20
2023-02-12T21:39:09.905Z,60.26
2023-02-12T21:41:40.283Z,60.21
2023-02-12T21:44:12.128Z,59.83
2023-02-12T21:46:40.147Z,59.88
2023-02-12T21:49:07.949Z,60.22
2023-02-12T21:51:37.828Z,60.31
2023-02-12T21:54:09.565Z,60.30
2023-02-12T21:56:37.940Z,60.32
2023-02-12T21:59:06.033Z,60.38
2023-02-12T22:01:41.021Z,60.23
2023-02-12T22:04:08.611Z,60.46
2023-02-12T22:06:38.477Z,60.23
2023-02-12T22:09:09.424Z,60.30
2023-02-12T22:11:38.370Z,60.42
2023-02-12T22:14:08.014Z,60.22
2023-02-12T22:16:36.506Z,60.10
2023-02-12T22:19:04.994Z,60.71
2023-02-12T22:21:36.520Z,60.41
2023-02-12T22:24:06.993Z,60.62
2023-02-12T22:26:36.001Z,60.54
2023-02-12T22:29:06.542Z,60.43
2023-02-12T22:31:37.068Z,60.47
2023-02-12T22:34:07.208Z,60.66
2023-02-12T22:36:36.207Z,60.49
2023-02-12T22:39:04.855Z,60.50
2023-02-12T22:41:32.642Z,60.52
2023-02-12T22:44:02.506Z,60.45
2023-02-12T22:46:29.427Z,60.70
2023-02-12T22:48:56.511Z,60.59
2023-02-12T22:51:25.963Z,60.62
2023-02-12T22:53:54.195Z,60.53
2023-02-12T22:56:22.733Z,60.65
2023-02-12T22:58:56.001Z,60.55
2023-02-12T23:01:25.630Z,61.16
2023-02-12T23:03:53.273Z,60.79
2023-02-12T23:06:22.963Z,60.69
2023-02-12T23:08:52.310Z,60.68
2023-02-12T23:11:20.358Z,60.74
2023-02-12T23:13:47.633Z,60.67
2023-02-12T23:16:14.658Z,60.55
2023-02-12T23:18:43.381Z,60.65
2023-02-12T23:21:10.291Z,60.49
2023-02-12T23:23:37.383Z,60.66
2023-02-12T23:26:05.007Z,60.66
2023-02-12T23:28:32.346Z,60.67
2023-02-12T23:30:59.668Z,60.53
2023-02-12T23:33:26.871Z,60.69
2023-02-12T23:35:55.091Z,60.63
2023-02-12T23:38:22.126Z,60.77
2023-02-12T23:40:49.068Z,60.59
2023-02-12T23:43:16.032Z,60.53
2023-02-12T23:45:44.366Z,60.64
2023-02-12T23:48:12.073Z,60.63
2023-02-12T23:50:39.335Z,60.94
2023-02-12T23:53:09.998Z,60.84
2023-02-12T23:55:38.178Z,60.72
2023-02-12T23:58:06.728Z,60.71
